sensor_id;sensor_type;location;lat;lon;timestamp;pressure;altitude;pressure_sealevel;temperature;humidity
29433;BME280;16405;53.964;13.448;2022-10-15T00:01:16;100468.31;;;10.75;100.00
29433;BME280;16405;53.964;13.448;2022-10-15T00:03:48;100460.28;;;10.78;100.00
29433;BME280;16405;53.964;13.448;2022-10-15T00:06:18;100456.88;;;10.76;100.00
29433;BME280;16405;53.964;13.448;2022-10-15T00:08:45;100447.13;;;10.78;100.00
29433;BME280;16405;53.964;13.448;2022-10-15T00:11:17;100451.31;;;10.82;100.00
29433;BME280;16405;53.964;13.448;2022-10-15T00:13:44;100444.84;;;10.88;100.00
29433;BME280;16405;53.964;13.448;2022-10-15T00:16:17;100437.63;;;10.92;100.00
29433;BME280;16405;53.964;13.448;2022-10-15T00:18:46;100442.59;;;10.98;100.00
29433;BME280;16405;53.964;13.448;2022-10-15T00:21:15;100438.00;;;11.01;100.00
29433;BME280;16405;53.964;13.448;2022-10-15T00:23:41;100441.31;;;11.05;100.00
29433;BME280;16405;53.964;13.448;2022-10-15T00:26:11;100441.19;;;11.08;100.00
29433;BME280;16405;53.964;13.448;2022-10-15T00:28:40;100436.75;;;11.08;100.00
29433;BME280;16405;53.964;13.448;2022-10-15T00:31:17;100432.16;;;11.12;100.00
29433;BME280;16405;53.964;13.448;2022-10-15T00:33:48;100433.69;;;11.16;100.00
29433;BME280;16405;53.964;13.448;2022-10-15T00:36:22;100430.13;;;11.17;100.00
29433;BME280;16405;53.964;13.448;2022-10-15T00:38:49;100424.78;;;11.19;100.00
29433;BME280;16405;53.964;13.448;2022-10-15T00:41:24;100421.97;;;11.22;100.00
29433;BME280;16405;53.964;13.448;2022-10-15T00:43:58;100415.88;;;11.21;100.00
29433;BME280;16405;53.964;13.448;2022-10-15T00:46:44;100419.53;;;11.19;100.00
29433;BME280;16405;53.964;13.448;2022-10-15T00:49:32;100415.75;;;11.23;100.00
29433;BME280;16405;53.964;13.448;2022-10-15T00:52:06;100416.38;;;11.28;100.00
29433;BME280;16405;53.964;13.448;2022-10-15T00:54:47;100405.84;;;11.28;100.00
29433;BME280;16405;53.964;13.448;2022-10-15T00:57:15;100411.88;;;11.30;100.00
29433;BME280;16405;53.964;13.448;2022-10-15T00:59:49;100408.16;;;11.34;100.00
29433;BME280;16405;53.964;13.448;2022-10-15T01:02:18;100398.78;;;11.28;100.00
29433;BME280;16405;53.964;13.448;2022-10-15T01:04:45;100394.53;;;11.26;100.00
29433;BME280;16405;53.964;13.448;2022-10-15T01:07:20;100397.69;;;11.33;100.00
29433;BME280;16405;53.964;13.448;2022-10-15T01:09:46;100397.69;;;11.33;100.00
29433;BME280;16405;53.964;13.448;2022-10-15T01:12:52;100398.38;;;11.36;100.00
29433;BME280;16405;53.964;13.448;2022-10-15T01:15:25;100395.88;;;11.33;100.00
29433;BME280;16405;53.964;13.448;2022-10-15T01:21:52;100382.63;;;11.35;100.00
29433;BME280;16405;53.964;13.448;2022-10-15T01:29:37;100386.78;;;11.39;100.00
29433;BME280;16405;53.964;13.448;2022-10-15T01:32:26;100387.47;;;11.42;100.00
29433;BME280;16405;53.964;13.448;2022-10-15T01:35:20;100382.03;;;11.45;100.00
29433;BME280;16405;53.964;13.448;2022-10-15T01:38:03;100377.25;;;11.52;100.00
29433;BME280;16405;53.964;13.448;2022-10-15T01:43:20;100376.22;;;11.55;100.00
29433;BME280;16405;53.964;13.448;2022-10-15T01:46:05;100367.56;;;11.53;100.00
29433;BME280;16405;53.964;13.448;2022-10-15T01:48:41;100365.09;;;11.49;100.00
29433;BME280;16405;53.964;13.448;2022-10-15T01:51:09;100361.63;;;11.49;100.00
29433;BME280;16405;53.964;13.448;2022-10-15T01:53:43;100351.25;;;11.46;100.00
29433;BME280;16405;53.964;13.448;2022-10-15T01:56:14;100363.56;;;11.45;100.00
29433;BME280;16405;53.964;13.448;2022-10-15T01:58:54;100349.63;;;11.43;100.00
29433;BME280;16405;53.964;13.448;2022-10-15T02:01:21;100353.28;;;11.41;100.00
29433;BME280;16405;53.964;13.448;2022-10-15T02:03:55;100347.25;;;11.39;100.00
29433;BME280;16405;53.964;13.448;2022-10-15T02:06:36;100336.09;;;11.34;100.00
29433;BME280;16405;53.964;13.448;2022-10-15T02:20:47;100315.38;;;11.12;100.00
29433;BME280;16405;53.964;13.448;2022-10-15T02:23:24;100321.47;;;11.12;100.00
29433;BME280;16405;53.964;13.448;2022-10-15T02:25:57;100311.56;;;11.17;100.00
29433;BME280;16405;53.964;13.448;2022-10-15T02:28:26;100321.16;;;11.18;100.00
29433;BME280;16405;53.964;13.448;2022-10-15T02:30:54;100312.72;;;11.12;100.00
29433;BME280;16405;53.964;13.448;2022-10-15T02:33:31;100307.19;;;11.16;100.00
29433;BME280;16405;53.964;13.448;2022-10-15T02:35:58;100291.56;;;11.13;100.00
29433;BME280;16405;53.964;13.448;2022-10-15T02:38:28;100289.97;;;11.11;100.00
29433;BME280;16405;53.964;13.448;2022-10-15T02:40:56;100288.34;;;11.08;100.00
29433;BME280;16405;53.964;13.448;2022-10-15T02:43:22;100280.44;;;11.08;100.00
29433;BME280;16405;53.964;13.448;2022-10-15T02:45:48;100282.97;;;11.09;100.00
29433;BME280;16405;53.964;13.448;2022-10-15T02:48:15;100292.09;;;11.04;100.00
29433;BME280;16405;53.964;13.448;2022-10-15T02:50:48;100286.06;;;11.02;100.00
29433;BME280;16405;53.964;13.448;2022-10-15T02:53:14;100277.38;;;11.00;100.00
29433;BME280;16405;53.964;13.448;2022-10-15T02:55:40;100286.31;;;10.97;100.00
29433;BME280;16405;53.964;13.448;2022-10-15T02:58:06;100280.44;;;10.92;100.00
29433;BME280;16405;53.964;13.448;2022-10-15T03:00:37;100274.84;;;10.82;100.00
29433;BME280;16405;53.964;13.448;2022-10-15T03:03:03;100271.44;;;10.80;100.00
29433;BME280;16405;53.964;13.448;2022-10-15T03:05:29;100263.78;;;10.76;100.00
29433;BME280;16405;53.964;13.448;2022-10-15T03:07:55;100265.81;;;10.71;100.00
29433;BME280;16405;53.964;13.448;2022-10-15T03:10:21;100266.84;;;10.68;100.00
29433;BME280;16405;53.964;13.448;2022-10-15T03:13:00;100267.94;;;10.64;100.00
29433;BME280;16405;53.964;13.448;2022-10-15T03:15:26;100265.53;;;10.59;100.00
29433;BME280;16405;53.964;13.448;2022-10-15T03:17:59;100262.97;;;10.58;100.00
29433;BME280;16405;53.964;13.448;2022-10-15T03:20:25;100257.06;;;10.54;100.00
29433;BME280;16405;53.964;13.448;2022-10-15T03:22:51;100266.72;;;10.54;100.00
29433;BME280;16405;53.964;13.448;2022-10-15T03:25:17;100273.00;;;10.51;100.00
29433;BME280;16405;53.964;13.448;2022-10-15T03:27:42;100270.63;;;10.46;100.00
29433;BME280;16405;53.964;13.448;2022-10-15T03:30:14;100255.00;;;10.43;100.00
29433;BME280;16405;53.964;13.448;2022-10-15T03:32:40;100262.78;;;10.45;100.00
29433;BME280;16405;53.964;13.448;2022-10-15T03:35:06;100259.06;;;10.49;100.00
29433;BME280;16405;53.964;13.448;2022-10-15T03:37:32;100266.88;;;10.51;100.00
29433;BME280;16405;53.964;13.448;2022-10-15T03:39:58;100259.84;;;10.51;100.00
29433;BME280;16405;53.964;13.448;2022-10-15T03:42:31;100259.75;;;10.53;100.00
29433;BME280;16405;53.964;13.448;2022-10-15T03:44:57;100262.47;;;10.51;100.00
29433;BME280;16405;53.964;13.448;2022-10-15T03:47:23;100261.69;;;10.49;100.00
29433;BME280;16405;53.964;13.448;2022-10-15T03:49:48;100268.34;;;10.56;100.00
29433;BME280;16405;53.964;13.448;2022-10-15T03:52:14;100257.72;;;10.58;100.00
29433;BME280;16405;53.964;13.448;2022-10-15T03:54:49;100262.97;;;10.58;100.00
29433;BME280;16405;53.964;13.448;2022-10-15T03:57:15;100259.59;;;10.56;100.00
29433;BME280;16405;53.964;13.448;2022-10-15T03:59:40;100260.47;;;10.56;100.00
29433;BME280;16405;53.964;13.448;2022-10-15T04:02:06;100257.91;;;10.55;100.00
29433;BME280;16405;53.964;13.448;2022-10-15T04:04:39;100256.03;;;10.57;100.00
29433;BME280;16405;53.964;13.448;2022-10-15T04:07:05;100258.41;;;10.61;100.00
29433;BME280;16405;53.964;13.448;2022-10-15T04:09:31;100258.34;;;10.63;100.00
29433;BME280;16405;53.964;13.448;2022-10-15T04:11:57;100253.75;;;10.66;100.00
29433;BME280;16405;53.964;13.448;2022-10-15T04:14:22;100250.00;;;10.71;100.00
29433;BME280;16405;53.964;13.448;2022-10-15T04:16:53;100255.19;;;10.72;100.00
29433;BME280;16405;53.964;13.448;2022-10-15T04:19:19;100252.38;;;10.75;100.00
29433;BME280;16405;53.964;13.448;2022-10-15T04:21:45;100261.81;;;10.79;100.00
29433;BME280;16405;53.964;13.448;2022-10-15T04:24:11;100254.69;;;10.81;100.00
29433;BME280;16405;53.964;13.448;2022-10-15T04:26:37;100248.41;;;10.84;100.00
29433;BME280;16405;53.964;13.448;2022-10-15T04:29:03;100238.72;;;10.84;100.00
29433;BME280;16405;53.964;13.448;2022-10-15T04:31:34;100245.69;;;10.85;100.00
29433;BME280;16405;53.964;13.448;2022-10-15T04:34:02;100235.41;;;10.81;100.00
29433;BME280;16405;53.964;13.448;2022-10-15T04:36:28;100238.81;;;10.83;100.00
29433;BME280;16405;53.964;13.448;2022-10-15T04:38:54;100241.38;;;10.84;100.00
29433;BME280;16405;53.964;13.448;2022-10-15T04:41:28;100244.66;;;10.88;100.00
29433;BME280;16405;53.964;13.448;2022-10-15T04:43:56;100241.63;;;10.80;100.00
29433;BME280;16405;53.964;13.448;2022-10-15T04:46:22;100241.63;;;10.80;100.00
29433;BME280;16405;53.964;13.448;2022-10-15T04:48:48;100249.94;;;10.72;100.00
29433;BME280;16405;53.964;13.448;2022-10-15T04:51:23;100243.72;;;10.73;100.00
29433;BME280;16405;53.964;13.448;2022-10-15T04:53:49;100241.97;;;10.74;100.00
29433;BME280;16405;53.964;13.448;2022-10-15T04:56:18;100249.59;;;10.78;100.00
29433;BME280;16405;53.964;13.448;2022-10-15T04:58:47;100247.81;;;10.79;100.00
29433;BME280;16405;53.964;13.448;2022-10-15T05:01:16;100244.25;;;10.80;100.00
29433;BME280;16405;53.964;13.448;2022-10-15T05:03:52;100247.47;;;10.85;100.00
29433;BME280;16405;53.964;13.448;2022-10-15T05:06:20;100247.22;;;10.90;100.00
29433;BME280;16405;53.964;13.448;2022-10-15T05:08:48;100250.34;;;10.96;100.00
29433;BME280;16405;53.964;13.448;2022-10-15T05:11:24;100240.50;;;11.00;100.00
29433;BME280;16405;53.964;13.448;2022-10-15T05:13:50;100252.31;;;11.08;100.00
29433;BME280;16405;53.964;13.448;2022-10-15T05:16:22;100244.91;;;11.15;100.00
29433;BME280;16405;53.964;13.448;2022-10-15T05:18:52;100250.88;;;11.19;100.00
29433;BME280;16405;53.964;13.448;2022-10-15T05:21:22;100245.34;;;11.23;100.00
29433;BME280;16405;53.964;13.448;2022-10-15T05:23:50;100251.19;;;11.28;100.00
29433;BME280;16405;53.964;13.448;2022-10-15T05:26:20;100251.75;;;11.34;100.00
29433;BME280;16405;53.964;13.448;2022-10-15T05:28:46;100249.72;;;11.39;100.00
29433;BME280;16405;53.964;13.448;2022-10-15T05:31:16;100252.09;;;11.43;100.00
29433;BME280;16405;53.964;13.448;2022-10-15T05:33:43;100252.78;;;11.47;100.00
29433;BME280;16405;53.964;13.448;2022-10-15T05:36:16;100252.38;;;11.53;100.00
29433;BME280;16405;53.964;13.448;2022-10-15T05:38:48;100253.00;;;11.58;100.00
29433;BME280;16405;53.964;13.448;2022-10-15T05:41:14;100250.16;;;11.61;100.00
29433;BME280;16405;53.964;13.448;2022-10-15T05:43:41;100260.53;;;11.64;100.00
29433;BME280;16405;53.964;13.448;2022-10-15T05:46:08;100252.44;;;11.67;100.00
29433;BME280;16405;53.964;13.448;2022-10-15T05:48:41;100257.44;;;11.72;100.00
29433;BME280;16405;53.964;13.448;2022-10-15T05:51:11;100252.09;;;11.74;100.00
29433;BME280;16405;53.964;13.448;2022-10-15T05:53:44;100258.88;;;11.78;100.00
29433;BME280;16405;53.964;13.448;2022-10-15T05:56:14;100249.94;;;11.80;100.00
29433;BME280;16405;53.964;13.448;2022-10-15T05:58:48;100258.31;;;11.87;100.00
29433;BME280;16405;53.964;13.448;2022-10-15T06:01:14;100262.72;;;11.88;100.00
29433;BME280;16405;53.964;13.448;2022-10-15T06:03:41;100264.19;;;11.92;100.00
29433;BME280;16405;53.964;13.448;2022-10-15T06:06:21;100263.00;;;11.98;100.00
29433;BME280;16405;53.964;13.448;2022-10-15T06:08:50;100263.75;;;12.00;100.00
29433;BME280;16405;53.964;13.448;2022-10-15T06:11:19;100269.59;;;12.05;100.00
29433;BME280;16405;53.964;13.448;2022-10-15T06:13:46;100268.59;;;12.07;100.00
29433;BME280;16405;53.964;13.448;2022-10-15T06:16:14;100268.38;;;12.10;100.00
29433;BME280;16405;53.964;13.448;2022-10-15T06:18:43;100273.66;;;12.10;100.00
29433;BME280;16405;53.964;13.448;2022-10-15T06:21:12;100274.44;;;12.13;100.00
29433;BME280;16405;53.964;13.448;2022-10-15T06:23:38;100273.47;;;12.14;100.00
29433;BME280;16405;53.964;13.448;2022-10-15T06:26:06;100272.34;;;12.18;100.00
29433;BME280;16405;53.964;13.448;2022-10-15T06:28:40;100278.22;;;12.23;100.00
29433;BME280;16405;53.964;13.448;2022-10-15T06:31:06;100280.56;;;12.27;100.00
29433;BME280;16405;53.964;13.448;2022-10-15T06:33:34;100275.22;;;12.29;100.00
29433;BME280;16405;53.964;13.448;2022-10-15T06:36:09;100284.63;;;12.33;100.00
29433;BME280;16405;53.964;13.448;2022-10-15T06:38:35;100278.50;;;12.32;100.00
29433;BME280;16405;53.964;13.448;2022-10-15T06:41:10;100285.47;;;12.34;100.00
29433;BME280;16405;53.964;13.448;2022-10-15T06:43:36;100287.25;;;12.33;100.00
29433;BME280;16405;53.964;13.448;2022-10-15T06:46:03;100282.72;;;12.35;100.00
29433;BME280;16405;53.964;13.448;2022-10-15T06:48:30;100287.75;;;12.40;100.00
29433;BME280;16405;53.964;13.448;2022-10-15T06:50:58;100283.88;;;12.45;100.00
29433;BME280;16405;53.964;13.448;2022-10-15T06:53:28;100287.28;;;12.47;100.00
29433;BME280;16405;53.964;13.448;2022-10-15T06:56:04;100292.25;;;12.52;100.00
29433;BME280;16405;53.964;13.448;2022-10-15T06:58:31;100289.53;;;12.54;100.00
29433;BME280;16405;53.964;13.448;2022-10-15T07:01:01;100296.25;;;12.59;100.00
29433;BME280;16405;53.964;13.448;2022-10-15T07:03:28;100298.69;;;12.62;100.00
29433;BME280;16405;53.964;13.448;2022-10-15T07:06:06;100308.03;;;12.68;100.00
29433;BME280;16405;53.964;13.448;2022-10-15T07:08:32;100312.16;;;12.72;100.00
29433;BME280;16405;53.964;13.448;2022-10-15T07:11:07;100306.50;;;12.78;100.00
29433;BME280;16405;53.964;13.448;2022-10-15T07:13:34;100310.56;;;12.84;100.00
29433;BME280;16405;53.964;13.448;2022-10-15T07:16:05;100313.66;;;12.90;100.00
29433;BME280;16405;53.964;13.448;2022-10-15T07:18:32;100308.16;;;12.93;100.00
29433;BME280;16405;53.964;13.448;2022-10-15T07:20:58;100314.13;;;12.97;100.00
29433;BME280;16405;53.964;13.448;2022-10-15T07:23:24;100314.78;;;13.01;100.00
29433;BME280;16405;53.964;13.448;2022-10-15T07:25:50;100312.78;;;13.04;100.00
29433;BME280;16405;53.964;13.448;2022-10-15T07:28:15;100319.56;;;13.08;100.00
29433;BME280;16405;53.964;13.448;2022-10-15T07:30:49;100313.91;;;13.14;100.00
29433;BME280;16405;53.964;13.448;2022-10-15T07:33:15;100324.00;;;13.22;100.00
29433;BME280;16405;53.964;13.448;2022-10-15T07:35:41;100321.00;;;13.28;100.00
29433;BME280;16405;53.964;13.448;2022-10-15T07:38:06;100327.56;;;13.36;100.00
29433;BME280;16405;53.964;13.448;2022-10-15T07:40:37;100319.34;;;13.40;100.00
29433;BME280;16405;53.964;13.448;2022-10-15T07:43:02;100322.66;;;13.44;100.00
29433;BME280;16405;53.964;13.448;2022-10-15T07:45:28;100326.88;;;13.46;100.00
29433;BME280;16405;53.964;13.448;2022-10-15T07:47:54;100325.75;;;13.50;100.00
29433;BME280;16405;53.964;13.448;2022-10-15T07:50:20;100333.47;;;13.53;100.00
29433;BME280;16405;53.964;13.448;2022-10-15T07:52:46;100342.06;;;13.57;100.00
29433;BME280;16405;53.964;13.448;2022-10-15T07:55:15;100340.16;;;13.59;100.00
29433;BME280;16405;53.964;13.448;2022-10-15T07:57:44;100332.84;;;13.63;100.00
29433;BME280;16405;53.964;13.448;2022-10-15T08:00:11;100334.47;;;13.65;100.00
29433;BME280;16405;53.964;13.448;2022-10-15T08:02:37;100338.72;;;13.68;100.00
29433;BME280;16405;53.964;13.448;2022-10-15T08:05:03;100339.44;;;13.70;100.00
29433;BME280;16405;53.964;13.448;2022-10-15T08:07:36;100343.91;;;13.69;100.00
29433;BME280;16405;53.964;13.448;2022-10-15T08:10:02;100340.19;;;13.72;100.00
29433;BME280;16405;53.964;13.448;2022-10-15T08:12:30;100340.06;;;13.73;100.00
29433;BME280;16405;53.964;13.448;2022-10-15T08:14:58;100340.72;;;13.77;100.00
29433;BME280;16405;53.964;13.448;2022-10-15T08:17:26;100340.44;;;13.82;100.00
29433;BME280;16405;53.964;13.448;2022-10-15T08:19:52;100341.91;;;13.86;100.00
29433;BME280;16405;53.964;13.448;2022-10-15T08:22:18;100345.31;;;13.88;100.00
29433;BME280;16405;53.964;13.448;2022-10-15T08:24:44;100345.13;;;13.91;100.00
29433;BME280;16405;53.964;13.448;2022-10-15T08:27:10;100345.97;;;13.91;100.00
29433;BME280;16405;53.964;13.448;2022-10-15T08:29:43;100335.25;;;13.93;100.00
29433;BME280;16405;53.964;13.448;2022-10-15T08:32:09;100349.25;;;13.95;100.00
29433;BME280;16405;53.964;13.448;2022-10-15T08:34:34;100346.59;;;13.95;100.00
29433;BME280;16405;53.964;13.448;2022-10-15T08:37:02;100346.59;;;13.95;100.00
29433;BME280;16405;53.964;13.448;2022-10-15T08:39:27;100345.44;;;13.99;100.00
29433;BME280;16405;53.964;13.448;2022-10-15T08:42:03;100345.25;;;14.02;100.00
29433;BME280;16405;53.964;13.448;2022-10-15T08:50:00;100355.31;;;14.10;100.00
29433;BME280;16405;53.964;13.448;2022-10-15T08:52:45;100362.41;;;14.09;100.00
29433;BME280;16405;53.964;13.448;2022-10-15T08:55:22;100358.84;;;14.10;100.00
29433;BME280;16405;53.964;13.448;2022-10-15T08:58:34;100355.75;;;14.16;100.00
29433;BME280;16405;53.964;13.448;2022-10-15T09:01:43;100352.81;;;14.21;100.00
29433;BME280;16405;53.964;13.448;2022-10-15T09:07:45;100363.63;;;14.31;100.00
29433;BME280;16405;53.964;13.448;2022-10-15T09:10:49;100367.66;;;14.36;100.00
29433;BME280;16405;53.964;13.448;2022-10-15T09:13:33;100362.88;;;14.42;100.00
29433;BME280;16405;53.964;13.448;2022-10-15T09:16:17;100370.59;;;14.45;100.00
29433;BME280;16405;53.964;13.448;2022-10-15T09:18:47;100370.59;;;14.45;100.00
29433;BME280;16405;53.964;13.448;2022-10-15T09:21:17;100370.50;;;14.46;100.00
29433;BME280;16405;53.964;13.448;2022-10-15T09:23:48;100378.38;;;14.48;100.00
29433;BME280;16405;53.964;13.448;2022-10-15T09:26:51;100376.56;;;14.48;100.00
29433;BME280;16405;53.964;13.448;2022-10-15T09:35:38;100381.38;;;14.69;100.00
29433;BME280;16405;53.964;13.448;2022-10-15T09:44:07;100395.97;;;15.13;100.00
29433;BME280;16405;53.964;13.448;2022-10-15T09:46:51;100394.56;;;15.20;100.00
29433;BME280;16405;53.964;13.448;2022-10-15T09:49:25;100398.69;;;15.24;100.00
29433;BME280;16405;53.964;13.448;2022-10-15T09:55:09;100406.50;;;15.38;100.00
29433;BME280;16405;53.964;13.448;2022-10-15T09:57:41;100401.94;;;15.41;100.00
29433;BME280;16405;53.964;13.448;2022-10-15T10:00:11;100401.78;;;15.55;100.00
29433;BME280;16405;53.964;13.448;2022-10-15T10:02:40;100396.53;;;15.79;100.00
29433;BME280;16405;53.964;13.448;2022-10-15T10:05:32;100399.19;;;16.03;100.00
29433;BME280;16405;53.964;13.448;2022-10-15T10:08:21;100407.22;;;16.26;100.00
29433;BME280;16405;53.964;13.448;2022-10-15T10:11:04;100408.25;;;16.47;100.00
29433;BME280;16405;53.964;13.448;2022-10-15T10:13:49;100409.75;;;16.74;100.00
29433;BME280;16405;53.964;13.448;2022-10-15T10:16:25;100408.72;;;16.99;100.00
29433;BME280;16405;53.964;13.448;2022-10-15T10:19:12;100408.13;;;17.07;97.65
29433;BME280;16405;53.964;13.448;2022-10-15T10:21:46;100411.97;;;17.25;96.31
29433;BME280;16405;53.964;13.448;2022-10-15T10:24:29;100405.16;;;17.55;93.40
29433;BME280;16405;53.964;13.448;2022-10-15T10:26:58;100410.94;;;17.71;91.01
29433;BME280;16405;53.964;13.448;2022-10-15T10:29:25;100408.63;;;17.78;90.02
29433;BME280;16405;53.964;13.448;2022-10-15T10:31:59;100413.94;;;17.78;89.88
29433;BME280;16405;53.964;13.448;2022-10-15T10:34:33;100415.63;;;17.79;89.33
29433;BME280;16405;53.964;13.448;2022-10-15T10:37:03;100419.66;;;17.85;88.87
29433;BME280;16405;53.964;13.448;2022-10-15T10:39:44;100414.44;;;17.83;87.63
29433;BME280;16405;53.964;13.448;2022-10-15T10:42:32;100411.84;;;17.81;87.41
29433;BME280;16405;53.964;13.448;2022-10-15T10:45:23;100409.50;;;17.67;87.10
29433;BME280;16405;53.964;13.448;2022-10-15T10:47:51;100412.41;;;17.53;88.17
29433;BME280;16405;53.964;13.448;2022-10-15T10:50:34;100408.59;;;17.23;88.71
29433;BME280;16405;53.964;13.448;2022-10-15T10:53:26;100407.97;;;16.97;88.64
29433;BME280;16405;53.964;13.448;2022-10-15T10:56:01;100405.22;;;16.87;89.80
29433;BME280;16405;53.964;13.448;2022-10-15T10:58:33;100414.00;;;16.76;90.69
29433;BME280;16405;53.964;13.448;2022-10-15T11:01:01;100409.03;;;16.72;91.15
29433;BME280;16405;53.964;13.448;2022-10-15T11:03:38;100409.63;;;16.75;92.03
29433;BME280;16405;53.964;13.448;2022-10-15T11:06:59;100407.09;;;16.74;92.15
29433;BME280;16405;53.964;13.448;2022-10-15T11:16:03;100410.16;;;17.03;90.10
29433;BME280;16405;53.964;13.448;2022-10-15T11:31:33;100415.81;;;17.55;85.63
29433;BME280;16405;53.964;13.448;2022-10-15T11:34:24;100416.53;;;17.57;82.71
29433;BME280;16405;53.964;13.448;2022-10-15T11:42:59;100412.13;;;17.90;81.95
29433;BME280;16405;53.964;13.448;2022-10-15T11:49:00;100414.53;;;18.25;79.78
29433;BME280;16405;53.964;13.448;2022-10-15T11:55:03;100409.44;;;18.22;78.88
29433;BME280;16405;53.964;13.448;2022-10-15T11:57:35;100411.91;;;18.14;79.22
29433;BME280;16405;53.964;13.448;2022-10-15T12:00:38;100409.72;;;18.19;78.84
29433;BME280;16405;53.964;13.448;2022-10-15T12:03:26;100407.31;;;18.37;78.55
29433;BME280;16405;53.964;13.448;2022-10-15T12:06:14;100398.00;;;18.52;77.84
29433;BME280;16405;53.964;13.448;2022-10-15T12:08:43;100402.03;;;18.68;77.87
29433;BME280;16405;53.964;13.448;2022-10-15T12:17:10;100397.88;;;18.54;76.20
29433;BME280;16405;53.964;13.448;2022-10-15T12:19:44;100398.41;;;18.48;75.54
29433;BME280;16405;53.964;13.448;2022-10-15T12:22:12;100393.06;;;18.48;76.00
29433;BME280;16405;53.964;13.448;2022-10-15T12:25:06;100398.72;;;18.54;75.92
29433;BME280;16405;53.964;13.448;2022-10-15T12:28:26;100400.94;;;18.49;73.54
29433;BME280;16405;53.964;13.448;2022-10-15T12:31:02;100402.38;;;18.53;73.79
29433;BME280;16405;53.964;13.448;2022-10-15T12:33:52;100403.41;;;18.41;73.73
29433;BME280;16405;53.964;13.448;2022-10-15T12:39:03;100400.50;;;18.12;75.06
29433;BME280;16405;53.964;13.448;2022-10-15T12:41:41;100399.63;;;17.90;75.13
29433;BME280;16405;53.964;13.448;2022-10-15T12:44:31;100398.94;;;17.77;75.44
29433;BME280;16405;53.964;13.448;2022-10-15T12:46:58;100398.69;;;17.69;75.68
29433;BME280;16405;53.964;13.448;2022-10-15T12:52:01;100406.78;;;17.78;75.51
29433;BME280;16405;53.964;13.448;2022-10-15T12:54:41;100406.16;;;17.97;76.21
29433;BME280;16405;53.964;13.448;2022-10-15T12:59:59;100405.78;;;18.02;73.27
29433;BME280;16405;53.964;13.448;2022-10-15T13:02:41;100404.84;;;17.92;73.09
29433;BME280;16405;53.964;13.448;2022-10-15T13:05:40;100400.63;;;17.78;73.55
29433;BME280;16405;53.964;13.448;2022-10-15T13:08:23;100406.13;;;17.65;74.29
29433;BME280;16405;53.964;13.448;2022-10-15T13:10:57;100404.19;;;17.67;74.61
29433;BME280;16405;53.964;13.448;2022-10-15T13:13:28;100400.63;;;17.89;74.64
29433;BME280;16405;53.964;13.448;2022-10-15T13:15:59;100400.78;;;18.09;74.17
29433;BME280;16405;53.964;13.448;2022-10-15T13:18:28;100397.22;;;18.19;73.48
29433;BME280;16405;53.964;13.448;2022-10-15T13:21:02;100393.06;;;18.06;72.19
29433;BME280;16405;53.964;13.448;2022-10-15T13:23:43;100406.41;;;17.94;71.86
29433;BME280;16405;53.964;13.448;2022-10-15T13:28:43;100401.47;;;17.78;73.72
29433;BME280;16405;53.964;13.448;2022-10-15T13:31:25;100399.75;;;17.77;74.11
29433;BME280;16405;53.964;13.448;2022-10-15T13:33:56;100402.69;;;17.86;73.87
29433;BME280;16405;53.964;13.448;2022-10-15T13:36:32;100396.84;;;17.92;72.88
29433;BME280;16405;53.964;13.448;2022-10-15T13:39:03;100388.63;;;17.95;71.84
29433;BME280;16405;53.964;13.448;2022-10-15T13:41:34;100394.91;;;17.94;72.79
29433;BME280;16405;53.964;13.448;2022-10-15T13:44:01;100394.91;;;17.94;72.89
29433;BME280;16405;53.964;13.448;2022-10-15T13:46:32;100386.47;;;17.89;72.75
29433;BME280;16405;53.964;13.448;2022-10-15T13:49:08;100398.22;;;17.86;72.47
29433;BME280;16405;53.964;13.448;2022-10-15T13:51:44;100395.69;;;17.85;73.17
29433;BME280;16405;53.964;13.448;2022-10-15T13:54:20;100391.44;;;17.82;73.24
29433;BME280;16405;53.964;13.448;2022-10-15T13:56:57;100401.00;;;17.73;72.10
29433;BME280;16405;53.964;13.448;2022-10-15T13:59:27;100392.91;;;17.63;71.89
29433;BME280;16405;53.964;13.448;2022-10-15T14:02:02;100401.66;;;17.54;71.71
29433;BME280;16405;53.964;13.448;2022-10-15T14:04:31;100407.47;;;17.48;71.40
29433;BME280;16405;53.964;13.448;2022-10-15T14:07:03;100401.81;;;17.41;71.57
29433;BME280;16405;53.964;13.448;2022-10-15T14:09:33;100415.00;;;17.43;71.77
29433;BME280;16405;53.964;13.448;2022-10-15T14:12:00;100410.16;;;17.37;71.44
29433;BME280;16405;53.964;13.448;2022-10-15T14:14:39;100415.25;;;17.29;71.45
29433;BME280;16405;53.964;13.448;2022-10-15T14:17:32;100417.19;;;17.27;71.70
29433;BME280;16405;53.964;13.448;2022-10-15T14:20:02;100420.09;;;17.24;71.81
29433;BME280;16405;53.964;13.448;2022-10-15T14:22:29;100421.03;;;17.22;72.64
29433;BME280;16405;53.964;13.448;2022-10-15T14:25:07;100430.59;;;17.25;73.19
29433;BME280;16405;53.964;13.448;2022-10-15T14:27:44;100421.16;;;17.21;72.65
29433;BME280;16405;53.964;13.448;2022-10-15T14:30:30;100424.06;;;17.18;72.77
29433;BME280;16405;53.964;13.448;2022-10-15T14:33:38;100426.25;;;17.13;72.79
29433;BME280;16405;53.964;13.448;2022-10-15T14:36:28;100417.88;;;17.06;72.74
29433;BME280;16405;53.964;13.448;2022-10-15T14:42:24;100419.25;;;16.89;73.37